Time;durP1;ratioP1;P1;durP2;ratioP2;P2;SDS_P1;SDS_P2;PMS_P1;PMS_P2;Temp;Humidity;BMP_temperature;BMP_pressure;BME280_temperature;BME280_humidity;BME280_pressure;Samples;Min_cycle;Max_cycle;Signal;HPM_P1;HPM_P2
2021/08/14 00:02:07;;;;;;;16.30;4.50;;;;;;;19.86;64.99;101091.97;4949868;29;20020;-92
2021/08/14 00:04:32;;;;;;;12.40;4.00;;;;;;;19.84;65.10;101089.44;4934864;29;20023;-93
2021/08/14 00:06:58;;;;;;;8.00;2.88;;;;;;;19.79;65.37;101092.56;4935167;29;20469;-93
2021/08/14 00:09:23;;;;;;;9.77;3.13;;;;;;;19.78;64.93;101090.84;4935009;29;20100;-93
2021/08/14 00:11:48;;;;;;;7.97;3.10;;;;;;;19.70;65.32;101085.41;4934900;29;20056;-92
2021/08/14 00:14:14;;;;;;;11.93;3.28;;;;;;;19.73;65.30;101087.81;4934926;29;20474;-93
2021/08/14 00:16:39;;;;;;;8.52;2.90;;;;;;;19.71;65.19;101086.25;4934998;29;20110;-93
2021/08/14 00:19:04;;;;;;;6.60;3.10;;;;;;;19.71;65.69;101089.78;4934840;29;20055;-93
2021/08/14 00:21:31;;;;;;;8.50;3.35;;;;;;;19.69;65.66;101096.19;4935018;29;20034;-92
2021/08/14 00:23:56;;;;;;;8.65;3.45;;;;;;;19.60;65.74;101097.94;4934752;29;20039;-93
2021/08/14 00:26:21;;;;;;;6.00;2.72;;;;;;;19.57;65.82;101082.25;4934818;29;20032;-94
2021/08/14 00:28:47;;;;;;;10.18;4.40;;;;;;;19.58;66.43;101089.25;4934804;29;20028;-93
2021/08/14 00:31:12;;;;;;;9.73;3.67;;;;;;;19.60;66.20;101092.59;4934835;29;20028;-94
2021/08/14 00:33:37;;;;;;;15.23;4.07;;;;;;;19.67;66.08;101079.53;4934658;29;20032;-93
2021/08/14 00:36:03;;;;;;;11.30;3.35;;;;;;;19.71;66.43;101084.47;4934825;29;20034;-94
2021/08/14 00:38:28;;;;;;;11.45;3.15;;;;;;;19.75;66.17;101077.03;4934720;29;20038;-93
2021/08/14 00:40:54;;;;;;;12.93;3.78;;;;;;;19.69;66.51;101075.75;4934873;29;20435;-93
2021/08/14 00:43:20;;;;;;;11.98;3.35;;;;;;;19.74;66.51;101072.66;4934691;29;20451;-93
2021/08/14 00:45:46;;;;;;;9.70;3.15;;;;;;;19.79;66.44;101081.06;4933321;29;20028;-92
2021/08/14 00:48:11;;;;;;;8.32;3.28;;;;;;;19.79;66.48;101065.91;4934564;29;20386;-92
2021/08/14 00:50:38;;;;;;;8.55;3.30;;;;;;;19.85;66.36;101068.97;4934632;29;20020;-93
2021/08/14 00:53:05;;;;;;;15.57;3.72;;;;;;;19.98;66.17;101062.31;4934653;29;20038;-93
2021/08/14 00:55:30;;;;;;;9.82;3.63;;;;;;;19.98;66.24;101069.44;4934576;29;20111;-92
2021/08/14 00:57:56;;;;;;;13.68;4.13;;;;;;;19.97;66.21;101057.94;4934447;29;20123;-93
2021/08/14 01:00:23;;;;;;;13.45;3.58;;;;;;;20.00;66.07;101052.34;4934538;29;20042;-93
2021/08/14 01:02:49;;;;;;;12.70;3.20;;;;;;;20.03;66.27;101061.84;4934496;29;20026;-92
2021/08/14 01:05:16;;;;;;;7.97;3.08;;;;;;;20.12;66.49;101055.63;4934357;29;20032;-93
2021/08/14 01:07:42;;;;;;;14.15;3.25;;;;;;;20.14;66.21;101061.63;4933195;29;20461;-92
2021/08/14 01:10:08;;;;;;;9.02;3.33;;;;;;;20.23;65.86;101043.06;4934369;29;20024;-93
2021/08/14 01:12:34;;;;;;;10.32;3.58;;;;;;;20.25;65.84;101046.41;4934425;29;20031;-93
2021/08/14 01:14:59;;;;;;;9.93;3.42;;;;;;;20.30;65.62;101046.78;4934258;29;20024;-93
2021/08/14 01:17:24;;;;;;;11.23;3.92;;;;;;;20.32;65.67;101044.78;4934388;29;20035;-93
2021/08/14 01:19:50;;;;;;;6.47;3.40;;;;;;;20.33;65.53;101038.47;4934388;29;20034;-92
2021/08/14 01:22:16;;;;;;;10.93;3.80;;;;;;;20.49;64.96;101045.78;4933260;29;20028;-93
2021/08/14 01:24:43;;;;;;;9.38;3.05;;;;;;;20.41;65.32;101038.56;4937756;29;20053;-92
2021/08/14 01:27:09;;;;;;;9.98;3.42;;;;;;;20.39;65.38;101041.38;4937871;29;20106;-93
2021/08/14 01:29:35;;;;;;;11.77;3.53;;;;;;;20.42;65.53;101037.56;4937881;29;20016;-93
2021/08/14 01:32:01;;;;;;;11.07;3.22;;;;;;;20.47;65.19;101037.94;4937678;29;20031;-93
2021/08/14 01:34:27;;;;;;;9.68;3.40;;;;;;;20.49;64.80;101040.44;4937772;29;20326;-93
2021/08/14 01:36:52;;;;;;;9.93;2.90;;;;;;;20.42;64.86;101045.56;4937693;29;20027;-93
2021/08/14 01:39:18;;;;;;;12.68;4.22;;;;;;;20.37;64.63;101031.84;4937479;29;20364;-92
2021/08/14 01:42:04;;;;;;;8.70;3.10;;;;;;;20.62;64.64;101032.06;4937703;29;20028;-93
2021/08/14 01:44:31;;;;;;;10.35;3.03;;;;;;;20.50;64.83;101034.97;4937494;29;20502;-91
2021/08/14 01:46:56;;;;;;;9.30;3.25;;;;;;;20.40;65.28;101034.22;4937487;29;20031;-93
2021/08/14 01:49:22;;;;;;;9.68;3.35;;;;;;;20.46;65.09;101030.94;4937451;29;20106;-92
2021/08/14 01:51:48;;;;;;;11.70;3.03;;;;;;;20.45;65.49;101037.25;4937590;29;20035;-92
2021/08/14 01:54:15;;;;;;;7.65;2.90;;;;;;;20.45;65.67;101036.41;4937301;29;20219;-92
2021/08/14 01:56:41;;;;;;;8.98;3.53;;;;;;;20.49;65.51;101029.78;4937318;29;20387;-92
2021/08/14 01:59:07;;;;;;;7.57;2.60;;;;;;;20.54;65.16;101025.66;4937358;29;20038;-92
2021/08/14 02:01:32;;;;;;;12.82;4.10;;;;;;;20.56;65.36;101028.19;4937381;29;20375;-92
2021/08/14 02:03:58;;;;;;;9.23;3.58;;;;;;;20.53;65.51;101025.81;4937069;29;20071;-93
2021/08/14 02:06:25;;;;;;;13.75;4.18;;;;;;;20.62;65.61;101024.94;4937205;29;20427;-93
2021/08/14 02:08:51;;;;;;;8.82;3.38;;;;;;;20.62;65.51;101021.41;4937138;29;20055;-92
2021/08/14 02:11:38;;;;;;;10.60;2.85;;;;;;;20.61;65.55;101017.91;4936929;29;20027;-93
2021/08/14 02:14:05;;;;;;;9.55;3.10;;;;;;;20.59;65.98;101015.38;4936700;29;20517;-92
2021/08/14 02:16:33;;;;;;;13.50;3.20;;;;;;;20.57;65.77;101014.66;4935777;29;20394;-93
2021/08/14 02:18:58;;;;;;;7.65;3.20;;;;;;;20.55;65.83;101019.31;4936938;29;20116;-93
2021/08/14 02:21:24;;;;;;;8.18;3.25;;;;;;;20.56;65.92;101014.84;4936798;29;20385;-92
2021/08/14 02:23:49;;;;;;;11.25;3.10;;;;;;;20.52;65.90;101021.50;4935623;29;20046;-93
2021/08/14 02:26:14;;;;;;;11.50;3.72;;;;;;;20.52;66.01;101029.50;4936943;29;20031;-92
2021/08/14 02:28:40;;;;;;;12.23;3.28;;;;;;;20.52;66.28;101018.81;4936933;29;20095;-93
2021/08/14 02:31:06;;;;;;;12.57;3.83;;;;;;;20.49;66.33;101025.28;4936720;29;20095;-92
2021/08/14 02:33:32;;;;;;;7.35;3.08;;;;;;;20.46;66.35;101014.94;4936154;29;20046;-93
2021/08/14 02:35:59;;;;;;;14.93;3.45;;;;;;;20.49;66.43;101009.28;4935753;29;20287;-92
2021/08/14 02:38:24;;;;;;;12.90;3.88;;;;;;;20.46;66.22;101014.94;4936539;29;20036;-92
2021/08/14 02:40:50;;;;;;;13.70;4.05;;;;;;;20.47;66.35;101011.25;4936515;29;20471;-92
2021/08/14 02:43:17;;;;;;;13.18;3.85;;;;;;;20.40;66.46;100999.56;4936528;29;20482;-92
2021/08/14 02:45:43;;;;;;;10.25;3.30;;;;;;;20.43;66.51;101012.56;4936449;29;20051;-93
2021/08/14 02:48:09;;;;;;;10.50;2.85;;;;;;;20.47;66.14;101010.44;4936607;29;20032;-93
2021/08/14 02:50:35;;;;;;;9.98;3.40;;;;;;;20.48;66.11;101002.28;4936375;29;20038;-92
2021/08/14 02:53:00;;;;;;;12.35;3.22;;;;;;;20.49;66.07;100998.59;4936350;29;20034;-93
2021/08/14 02:55:26;;;;;;;8.45;2.95;;;;;;;20.49;66.32;101009.28;4936296;29;20035;-92
2021/08/14 02:57:52;;;;;;;7.47;3.17;;;;;;;20.47;66.21;101000.59;4936108;29;20059;-92
2021/08/14 03:00:17;;;;;;;10.90;3.25;;;;;;;20.46;66.34;101001.59;4936195;29;20031;-92
2021/08/14 03:02:43;;;;;;;10.55;3.05;;;;;;;20.38;66.47;101006.88;4936309;29;20106;-93
2021/08/14 03:05:09;;;;;;;7.93;3.42;;;;;;;20.36;66.77;101006.19;4936132;29;20381;-92
2021/08/14 03:07:34;;;;;;;10.07;2.90;;;;;;;20.34;66.86;100998.34;4935967;29;20036;-93
2021/08/14 03:10:00;;;;;;;6.03;2.88;;;;;;;20.36;66.88;101003.53;4935836;29;20024;-93
2021/08/14 03:12:26;;;;;;;10.23;2.72;;;;;;;20.38;67.04;101002.38;4936034;29;20023;-92
2021/08/14 03:14:52;;;;;;;7.85;3.15;;;;;;;20.37;66.82;100999.84;4936066;29;20035;-93
2021/08/14 03:17:18;;;;;;;12.60;3.65;;;;;;;20.38;66.83;100998.88;4935825;29;20024;-93
2021/08/14 03:19:44;;;;;;;9.00;3.30;;;;;;;20.43;66.78;101003.72;4935954;29;20019;-92
2021/08/14 03:22:10;;;;;;;6.55;2.80;;;;;;;20.46;66.66;101000.72;4935887;29;20055;-93
2021/08/14 03:24:36;;;;;;;5.90;3.50;;;;;;;20.43;66.73;101001.91;4934330;29;20027;-93
2021/08/14 03:27:01;;;;;;;8.65;2.83;;;;;;;20.42;66.70;100997.56;4935741;29;20561;-92
2021/08/14 03:29:27;;;;;;;12.68;3.78;;;;;;;20.41;66.77;100998.53;4935600;29;20059;-92
2021/08/14 03:31:52;;;;;;;17.02;3.55;;;;;;;20.36;67.22;101004.34;4935478;29;20034;-92
2021/08/14 03:34:17;;;;;;;10.73;3.85;;;;;;;20.37;67.21;101002.50;4935580;29;20027;-93
2021/08/14 03:36:43;;;;;;;8.68;3.30;;;;;;;20.40;66.94;100994.22;4935707;29;20565;-92
2021/08/14 03:39:08;;;;;;;9.88;3.33;;;;;;;20.46;66.86;100996.25;4935451;29;20115;-92
2021/08/14 03:41:34;;;;;;;9.23;3.20;;;;;;;20.53;66.35;100993.81;4935347;29;20172;-93
2021/08/14 03:44:01;;;;;;;7.90;3.75;;;;;;;20.53;66.07;100999.13;4935407;29;20082;-94
2021/08/14 03:46:26;;;;;;;9.70;3.63;;;;;;;20.46;66.54;100993.59;4934920;29;20546;-93
2021/08/14 03:48:51;;;;;;;11.23;3.65;;;;;;;20.52;66.34;101002.81;4935357;29;20044;-93
2021/08/14 03:51:17;;;;;;;9.02;3.25;;;;;;;20.52;66.41;100992.97;4935278;29;20027;-91
2021/08/14 03:53:42;;;;;;;10.95;3.72;;;;;;;20.50;66.36;100976.28;4935251;29;20055;-93
2021/08/14 03:56:07;;;;;;;7.57;3.83;;;;;;;20.49;66.46;100982.59;4935214;29;20059;-92
2021/08/14 03:58:34;;;;;;;6.10;3.55;;;;;;;20.59;66.28;100985.22;4935270;29;20053;-93
2021/08/14 04:01:00;;;;;;;9.82;3.47;;;;;;;20.56;66.34;100983.66;4935263;29;20040;-93
2021/08/14 04:03:26;;;;;;;11.80;4.15;;;;;;;20.49;66.25;100974.59;4935212;29;20032;-92
2021/08/14 04:05:51;;;;;;;10.80;3.38;;;;;;;20.64;65.99;100979.44;4949620;28;20450;-93
2021/08/14 04:08:20;;;;;;;17.63;3.97;;;;;;;20.60;66.25;100969.06;4935210;29;20426;-92
2021/08/14 04:10:45;;;;;;;11.40;3.72;;;;;;;20.47;66.22;100973.91;4934972;29;20218;-93
2021/08/14 04:13:11;;;;;;;8.88;3.40;;;;;;;20.44;66.34;100982.25;4933777;29;20484;-94
2021/08/14 04:15:36;;;;;;;8.35;3.53;;;;;;;20.39;66.46;100976.53;4935009;29;20043;-93
2021/08/14 04:18:02;;;;;;;8.55;3.50;;;;;;;20.39;66.46;100973.84;4934829;29;20031;-92
2021/08/14 04:20:27;;;;;;;9.30;3.40;;;;;;;20.28;67.06;100974.09;4935001;29;20114;-92
2021/08/14 04:22:52;;;;;;;9.15;3.30;;;;;;;20.31;67.09;100976.47;4934851;29;20023;-92
2021/08/14 04:25:18;;;;;;;8.35;3.40;;;;;;;20.27;67.37;100983.94;4933615;29;20034;-92
2021/08/14 04:27:43;;;;;;;11.25;3.53;;;;;;;20.34;67.27;100984.13;4934946;29;20043;-92
2021/08/14 04:30:09;;;;;;;5.07;2.83;;;;;;;20.34;67.22;100992.13;4934879;29;20086;-92
2021/08/14 04:32:35;;;;;;;9.80;3.38;;;;;;;20.34;67.28;100992.13;4934859;29;20092;-92
2021/08/14 04:35:06;;;;;;;9.13;3.63;;;;;;;20.54;67.02;100988.31;4934788;29;20103;-93
2021/08/14 04:37:31;;;;;;;11.65;4.68;;;;;;;20.44;66.68;100990.25;4934965;29;20024;-93
2021/08/14 04:39:56;;;;;;;8.35;3.63;;;;;;;20.50;66.43;100983.47;4935176;29;20028;-93
2021/08/14 04:42:22;;;;;;;9.20;3.78;;;;;;;20.55;66.21;100981.97;4935042;29;20024;-92
2021/08/14 04:44:47;;;;;;;8.57;3.08;;;;;;;20.48;66.21;100975.59;4934687;29;20079;-92
2021/08/14 04:47:12;;;;;;;7.93;3.53;;;;;;;20.55;66.29;100976.63;4949436;29;20534;-92
2021/08/14 04:49:38;;;;;;;10.05;3.53;;;;;;;20.57;65.99;100980.00;4934823;29;20383;-92
2021/08/14 04:52:03;;;;;;;12.82;3.95;;;;;;;20.59;66.08;100978.03;4935258;29;20498;-92
2021/08/14 04:54:29;;;;;;;11.13;4.03;;;;;;;20.69;65.69;100977.09;4934539;29;20111;-93
2021/08/14 04:56:54;;;;;;;12.15;3.83;;;;;;;20.74;65.31;100980.16;4934639;29;20028;-92
2021/08/14 04:59:19;;;;;;;10.60;4.72;;;;;;;20.63;65.52;100972.41;4937219;29;20385;-92
2021/08/14 05:01:44;;;;;;;13.40;4.72;;;;;;;20.62;65.61;100971.56;4938656;29;20382;-92
2021/08/14 05:04:10;;;;;;;14.25;5.15;;;;;;;20.63;65.45;100978.56;4938609;29;20032;-92
2021/08/14 05:06:38;;;;;;;8.88;4.47;;;;;;;20.66;65.34;100969.44;4938568;29;20107;-93
2021/08/14 05:09:04;;;;;;;12.27;4.20;;;;;;;20.63;65.59;100981.22;4938615;29;20271;-92
2021/08/14 05:11:29;;;;;;;13.68;4.75;;;;;;;20.64;65.74;100971.41;4938572;29;20524;-93
2021/08/14 05:13:55;;;;;;;12.70;4.07;;;;;;;20.58;65.97;100971.00;4938188;29;20028;-92
2021/08/14 05:16:24;;;;;;;10.20;4.20;;;;;;;20.57;65.93;100973.81;4938194;29;20028;-93
2021/08/14 05:18:50;;;;;;;16.58;4.25;;;;;;;20.66;65.86;100975.59;4938089;29;20028;-92
2021/08/14 05:21:15;;;;;;;12.40;4.22;;;;;;;20.65;65.42;100965.06;4937058;29;20499;-93
2021/08/14 05:23:40;;;;;;;12.73;4.10;;;;;;;20.62;65.97;100968.03;4938604;29;20439;-92
2021/08/14 05:26:06;;;;;;;10.68;4.57;;;;;;;20.64;66.12;100968.75;4938063;29;20034;-92
2021/08/14 05:28:31;;;;;;;9.48;4.25;;;;;;;20.69;66.04;100972.59;4938095;29;20055;-93
2021/08/14 05:30:56;;;;;;;8.88;4.20;;;;;;;20.70;65.94;100973.47;4937976;29;20088;-93
2021/08/14 05:33:22;;;;;;;8.48;3.85;;;;;;;20.70;65.93;100973.47;4938470;29;20401;-93
2021/08/14 05:35:47;;;;;;;11.43;4.10;;;;;;;20.87;65.40;100969.03;4953120;28;20030;-93
2021/08/14 05:38:12;;;;;;;9.90;3.85;;;;;;;20.85;65.44;100977.19;4952722;29;20028;-92
2021/08/14 05:40:38;;;;;;;9.27;3.63;;;;;;;20.87;65.41;100977.88;4936832;29;20410;-93
2021/08/14 05:43:04;;;;;;;11.55;4.32;;;;;;;20.90;65.20;100985.59;4936757;29;20479;-92
2021/08/14 05:45:29;;;;;;;11.98;4.57;;;;;;;20.91;65.25;100981.06;4937710;29;20046;-92
2021/08/14 05:47:54;;;;;;;12.88;4.13;;;;;;;21.01;65.10;100989.84;4937897;29;20111;-93
2021/08/14 05:50:20;;;;;;;11.52;5.05;;;;;;;21.06;65.00;100986.69;4937763;29;20024;-92
2021/08/14 05:52:46;;;;;;;10.45;3.83;;;;;;;21.12;64.75;100989.53;4937623;29;20490;-92
2021/08/14 05:55:11;;;;;;;12.70;4.13;;;;;;;21.23;64.18;100988.44;4937582;29;20074;-93
2021/08/14 05:57:37;;;;;;;7.50;3.95;;;;;;;21.41;64.05;100987.53;4937528;29;20082;-92
2021/08/14 06:00:04;;;;;;;11.10;4.43;;;;;;;21.44;63.56;100997.91;4936023;29;20394;-93
2021/08/14 06:02:29;;;;;;;13.85;5.03;;;;;;;21.43;63.79;100990.88;4937203;29;20504;-91
2021/08/14 06:04:55;;;;;;;11.40;4.05;;;;;;;21.57;63.08;100992.94;4952106;28;20036;-92
2021/08/14 06:07:20;;;;;;;7.70;4.00;;;;;;;21.74;62.65;100999.16;4937369;29;20023;-92
2021/08/14 06:09:45;;;;;;;11.30;4.80;;;;;;;21.94;61.10;100995.22;4936987;29;20025;-92
2021/08/14 06:12:11;;;;;;;13.10;4.20;;;;;;;22.08;61.72;100995.59;4937254;29;20102;-92
2021/08/14 06:14:37;;;;;;;12.13;4.15;;;;;;;22.10;61.79;101001.59;4937093;29;20110;-92
2021/08/14 06:17:02;;;;;;;12.13;4.15;;;;;;;22.20;61.01;101001.44;4937258;29;20066;-93
2021/08/14 06:19:28;;;;;;;11.13;4.40;;;;;;;22.15;61.50;101002.75;4937152;29;20051;-92
2021/08/14 06:21:54;;;;;;;9.10;4.10;;;;;;;22.12;61.36;101011.13;4936966;29;20031;-91
2021/08/14 06:24:19;;;;;;;9.20;4.30;;;;;;;22.13;61.34;101009.28;4936853;29;20034;-94
2021/08/14 06:26:45;;;;;;;13.68;5.00;;;;;;;22.25;60.65;101004.47;4936856;29;20032;-92
2021/08/14 06:29:10;;;;;;;10.63;3.90;;;;;;;22.20;60.29;101004.94;4936844;29;20431;-92
2021/08/14 06:31:35;;;;;;;10.40;4.00;;;;;;;22.15;60.09;100993.91;4936727;29;20115;-92
2021/08/14 06:34:01;;;;;;;7.35;3.90;;;;;;;22.05;60.68;101002.06;4936584;29;20611;-92
2021/08/14 06:36:26;;;;;;;10.80;4.22;;;;;;;22.01;61.04;101000.75;4936635;29;20506;-92
2021/08/14 06:38:51;;;;;;;13.23;4.22;;;;;;;22.13;60.54;100998.59;4936627;29;20032;-93
2021/08/14 06:41:17;;;;;;;11.40;4.55;;;;;;;22.13;60.43;100994.06;4936607;29;20578;-92
2021/08/14 06:43:42;;;;;;;11.90;4.63;;;;;;;21.99;60.41;100997.41;4936364;29;20027;-93
2021/08/14 06:46:08;;;;;;;12.88;4.78;;;;;;;22.03;60.76;100997.91;4936488;29;20036;-93
2021/08/14 06:48:34;;;;;;;13.00;4.35;;;;;;;22.08;60.45;100996.41;4936596;29;20032;-92
2021/08/14 06:51:02;;;;;;;9.60;4.40;;;;;;;22.10;60.91;100999.75;4936541;29;20051;-93
2021/08/14 06:53:27;;;;;;;13.93;5.05;;;;;;;22.03;61.09;100997.91;4938257;29;20074;-93
2021/08/14 06:55:52;;;;;;;11.07;4.63;;;;;;;22.05;61.32;101001.25;4939179;29;20099;-93
2021/08/14 06:58:18;;;;;;;12.60;4.07;;;;;;;22.23;60.85;100995.75;4938627;29;20038;-92
2021/08/14 07:00:43;;;;;;;13.40;4.35;;;;;;;22.12;60.51;100999.59;4938613;29;20113;-93
2021/08/14 07:03:08;;;;;;;8.60;3.75;;;;;;;22.15;60.80;100996.56;4938790;29;20027;-92
2021/08/14 07:05:37;;;;;;;7.70;3.28;;;;;;;22.26;60.77;100998.13;4938404;29;20542;-92
2021/08/14 07:08:03;;;;;;;9.13;4.15;;;;;;;22.35;60.58;100989.09;4938030;29;20181;-92
2021/08/14 07:10:28;;;;;;;10.93;4.38;;;;;;;22.39;60.40;100987.75;4939593;29;20483;-92
2021/08/14 07:12:54;;;;;;;11.13;4.60;;;;;;;22.51;59.95;100996.28;4938530;29;20471;-92
2021/08/14 07:15:19;;;;;;;12.10;4.57;;;;;;;22.50;60.07;100995.44;4938387;29;20112;-93
2021/08/14 07:17:44;;;;;;;12.98;4.65;;;;;;;22.41;60.13;101007.16;4938537;29;20386;-93
2021/08/14 07:20:11;;;;;;;11.25;4.25;;;;;;;22.29;60.63;101003.13;4951201;28;20031;-94
2021/08/14 07:22:36;;;;;;;8.10;3.83;;;;;;;22.42;60.66;101006.16;4936822;29;20023;-92
2021/08/14 07:25:02;;;;;;;10.88;4.57;;;;;;;22.37;60.80;101006.69;4936964;29;20039;-92
2021/08/14 07:27:27;;;;;;;12.52;4.35;;;;;;;22.30;61.31;101005.66;4938151;29;20031;-92
2021/08/14 07:29:52;;;;;;;11.25;4.20;;;;;;;22.61;60.39;101007.69;4938223;29;20031;-93
2021/08/14 07:32:18;;;;;;;9.55;3.97;;;;;;;22.38;61.20;101012.84;4937895;29;20451;-93
2021/08/14 07:34:43;;;;;;;9.75;3.70;;;;;;;22.36;60.76;100998.81;4939349;29;20023;-92
2021/08/14 07:37:09;;;;;;;11.50;3.92;;;;;;;22.51;60.86;100996.28;4936003;29;20024;-92
2021/08/14 07:39:34;;;;;;;10.15;4.43;;;;;;;22.59;60.64;101012.34;4936644;29;20038;-92
2021/08/14 07:41:59;;;;;;;7.15;3.40;;;;;;;22.50;60.73;101006.16;4935938;29;20024;-92
2021/08/14 07:44:25;;;;;;;9.38;4.18;;;;;;;22.49;60.98;101009.84;4936068;29;20115;-94
2021/08/14 07:46:50;;;;;;;12.30;4.95;;;;;;;22.61;60.13;101012.16;4935791;29;20066;-92
2021/08/14 07:49:16;;;;;;;9.02;4.10;;;;;;;22.54;60.98;101001.31;4936098;29;20027;-92
2021/08/14 07:51:41;;;;;;;11.07;4.30;;;;;;;22.55;60.38;101002.97;4935971;29;20455;-93
2021/08/14 07:54:06;;;;;;;10.93;4.65;;;;;;;22.44;61.24;101006.00;4935445;29;20498;-92
2021/08/14 07:56:32;;;;;;;13.23;5.00;;;;;;;22.32;61.80;101008.16;4935463;29;20035;-93
2021/08/14 07:58:57;;;;;;;14.13;4.88;;;;;;;22.58;61.33;101019.53;4950172;29;20047;-93
2021/08/14 08:01:22;;;;;;;14.50;5.03;;;;;;;22.76;60.37;101005.13;4935694;29;20382;-92
2021/08/14 08:03:48;;;;;;;12.75;5.30;;;;;;;22.87;61.36;101010.13;4934257;29;20024;-93
2021/08/14 08:06:13;;;;;;;11.35;5.15;;;;;;;22.97;60.91;101002.75;4935285;29;20039;-92
2021/08/14 08:08:38;;;;;;;10.70;5.03;;;;;;;23.08;60.09;101003.41;4935381;29;20056;-92
2021/08/14 08:11:04;;;;;;;9.57;4.43;;;;;;;22.86;61.36;101004.94;4935727;29;20038;-92
2021/08/14 08:13:29;;;;;;;11.65;4.95;;;;;;;22.88;60.78;100997.59;4935268;29;20594;-92
2021/08/14 08:15:55;;;;;;;13.43;5.00;;;;;;;23.01;60.02;100997.06;4935148;29;20024;-92
2021/08/14 08:18:20;;;;;;;15.43;4.80;;;;;;;23.32;59.40;100998.00;4935235;29;20594;-92
2021/08/14 08:20:46;;;;;;;14.30;5.07;;;;;;;23.44;58.66;101003.81;4935334;29;20031;-93
2021/08/14 08:23:11;;;;;;;14.95;5.43;;;;;;;23.62;57.69;101000.88;4935435;29;20386;-93
2021/08/14 08:25:36;;;;;;;12.98;5.18;;;;;;;23.74;58.29;100994.09;4935158;29;20390;-93
2021/08/14 08:28:03;;;;;;;12.48;4.70;;;;;;;23.89;58.15;100996.88;4935161;29;20486;-93
2021/08/14 08:30:30;;;;;;;11.90;4.55;;;;;;;24.03;58.11;101000.69;4935184;29;20118;-92
2021/08/14 08:32:56;;;;;;;9.85;4.47;;;;;;;24.28;56.21;101001.31;4934914;29;20110;-93
2021/08/14 08:35:22;;;;;;;10.93;4.88;;;;;;;24.89;55.42;101003.16;4934971;29;20176;-92
2021/08/14 08:37:47;;;;;;;14.65;5.13;;;;;;;25.18;54.64;101005.03;4934946;29;20043;-92
2021/08/14 08:40:15;;;;;;;14.60;4.63;;;;;;;25.64;54.20;100999.41;4934693;29;20051;-93
2021/08/14 08:42:41;;;;;;;14.30;4.50;;;;;;;25.64;53.63;100996.72;4933494;29;20107;-95
2021/08/14 08:45:07;;;;;;;10.23;5.18;;;;;;;25.82;52.90;101004.38;4934501;29;20031;-92
2021/08/14 08:47:36;;;;;;;10.13;4.97;;;;;;;25.98;51.79;101006.03;4934859;29;20497;-93
2021/08/14 08:50:03;;;;;;;9.90;3.97;;;;;;;25.83;50.93;101005.22;4935093;29;20051;-93
2021/08/14 08:52:29;;;;;;;10.88;4.63;;;;;;;25.15;52.16;101000.00;4934835;29;20450;-92
2021/08/14 08:54:54;;;;;;;13.68;4.53;;;;;;;25.36;52.47;100998.47;4934882;29;20020;-92
2021/08/14 08:57:20;;;;;;;10.40;4.75;;;;;;;25.30;52.54;100994.66;4934801;29;20031;-92
2021/08/14 08:59:47;;;;;;;11.00;4.38;;;;;;;25.43;52.52;101002.06;4934937;29;20039;-93
2021/08/14 09:02:30;;;;;;;14.18;5.45;;;;;;;25.42;52.99;101003.09;4934823;29;20110;-92
2021/08/14 09:05:15;;;;;;;10.23;4.68;;;;;;;25.66;52.10;100996.56;4934866;29;20027;-92
2021/08/14 09:07:43;;;;;;;10.48;4.45;;;;;;;25.47;52.20;100996.09;4934876;29;20030;-92
2021/08/14 09:10:14;;;;;;;11.10;3.97;;;;;;;25.88;51.27;100981.28;4935418;29;20036;-93
2021/08/14 09:12:41;;;;;;;9.05;3.85;;;;;;;26.39;50.51;100983.03;4934665;29;20106;-93
2021/08/14 09:15:14;;;;;;;11.07;4.35;;;;;;;26.65;50.53;100985.94;4934700;29;20063;-93
2021/08/14 09:17:40;;;;;;;12.23;4.63;;;;;;;26.98;49.95;100987.22;4949657;29;20039;-93
2021/08/14 09:20:15;;;;;;;10.82;4.20;;;;;;;27.08;48.36;100983.09;4934541;29;20422;-93
2021/08/14 09:23:03;;;;;;;13.93;4.72;;;;;;;26.83;49.55;100985.44;4949165;29;20059;-93
2021/08/14 09:25:52;;;;;;;10.45;4.05;;;;;;;26.81;49.48;100984.81;4934101;29;20043;-92
2021/08/14 09:28:27;;;;;;;12.98;4.50;;;;;;;26.24;50.77;100983.09;4934187;29;20501;-94
2021/08/14 09:30:58;;;;;;;10.85;4.32;;;;;;;26.30;51.43;100985.00;4934037;29;20658;-92
2021/08/14 09:33:26;;;;;;;9.23;5.15;;;;;;;26.50;50.20;100979.78;4934067;29;20032;-93
2021/08/14 09:35:58;;;;;;;10.43;4.00;;;;;;;27.45;49.59;100972.94;4933996;29;20028;-94
2021/08/14 09:38:37;;;;;;;10.57;4.30;;;;;;;27.62;48.37;100976.09;4948697;29;20067;-93
2021/08/14 09:41:13;;;;;;;12.27;4.53;;;;;;;27.53;49.73;100963.00;4934091;29;20024;-94
2021/08/14 09:43:40;;;;;;;8.05;3.85;;;;;;;27.33;49.27;100963.78;4935016;29;20027;-94
2021/08/14 09:46:05;;;;;;;11.68;4.03;;;;;;;26.99;49.74;100956.53;4937614;29;20027;-93
2021/08/14 09:48:31;;;;;;;9.35;4.20;;;;;;;27.08;48.94;100960.72;4937394;29;20030;-93
2021/08/14 09:50:57;;;;;;;11.48;3.50;;;;;;;27.21;49.22;100959.94;4937402;29;20039;-93
2021/08/14 09:53:28;;;;;;;10.07;3.90;;;;;;;26.99;49.58;100962.72;4937396;29;20067;-93
2021/08/14 09:56:08;;;;;;;10.60;4.32;;;;;;;26.75;50.29;100965.91;4937325;29;20035;-94
2021/08/14 09:58:35;;;;;;;8.07;3.50;;;;;;;27.26;48.69;100969.13;4937148;29;20119;-93
2021/08/14 10:01:02;;;;;;;9.65;3.55;;;;;;;26.74;48.99;100970.47;4937149;29;20499;-92
2021/08/14 10:03:32;;;;;;;7.13;2.85;;;;;;;27.54;47.95;100970.06;4936041;29;20032;-93
2021/08/14 10:05:59;;;;;;;12.27;4.05;;;;;;;28.02;47.71;100973.53;4937073;29;20030;-93
2021/08/14 10:08:27;;;;;;;10.45;4.10;;;;;;;28.52;46.08;100966.94;4937411;29;20067;-92
2021/08/14 10:10:54;;;;;;;11.27;3.85;;;;;;;27.95;47.13;100970.00;4937111;29;20028;-93
2021/08/14 10:13:20;;;;;;;10.40;4.10;;;;;;;27.57;48.06;100970.50;4936972;29;20027;-93
2021/08/14 10:15:46;;;;;;;9.18;3.75;;;;;;;27.91;46.69;100959.81;4937089;29;20023;-93
2021/08/14 10:18:11;;;;;;;12.63;4.90;;;;;;;27.86;47.56;100963.09;4936964;29;20101;-94
2021/08/14 10:20:37;;;;;;;8.73;3.95;;;;;;;28.25;46.35;100962.31;4936939;29;20034;-93
2021/08/14 10:23:04;;;;;;;9.68;3.35;;;;;;;27.66;47.71;100966.56;4936958;29;20024;-93
2021/08/14 10:25:31;;;;;;;10.30;3.92;;;;;;;27.83;45.55;100960.81;4936810;29;20035;-93
2021/08/14 10:28:02;;;;;;;10.18;3.95;;;;;;;27.87;46.65;100957.53;4935436;29;20422;-93
2021/08/14 10:31:00;;;;;;;6.32;3.15;;;;;;;27.78;47.49;100955.19;4936645;29;20490;-93
2021/08/14 10:33:28;;;;;;;7.53;3.38;;;;;;;28.62;46.49;100956.53;4914608;29;20055;-93
2021/08/14 10:35:54;;;;;;;7.25;3.20;;;;;;;28.88;45.10;100953.75;4935419;29;20027;-93
2021/08/14 10:38:39;;;;;;;5.95;3.17;;;;;;;29.60;43.63;100947.44;4936517;29;20114;-93
2021/08/14 10:41:06;;;;;;;8.20;3.13;;;;;;;29.95;43.71;100949.75;4936987;29;20034;-93
2021/08/14 10:43:53;;;;;;;9.13;3.47;;;;;;;31.00;41.67;100949.03;4936811;29;20471;-92
2021/08/14 10:46:31;;;;;;;10.05;3.05;;;;;;;30.44;42.05;100938.13;4936891;29;20027;-94
2021/08/14 10:48:58;;;;;;;14.20;3.05;;;;;;;30.84;39.91;100937.69;4937234;29;20050;-93
2021/08/14 10:51:23;;;;;;;8.60;2.95;;;;;;;30.61;40.32;100937.56;4936780;29;20028;-93
2021/08/14 10:53:51;;;;;;;8.55;2.78;;;;;;;30.32;40.83;100933.69;4936574;29;20032;-94
2021/08/14 10:56:58;;;;;;;11.00;3.08;;;;;;;31.07;40.30;100938.94;4935599;29;20059;-93
2021/08/14 10:59:38;;;;;;;5.72;2.58;;;;;;;32.16;39.98;100938.88;4931028;29;20047;-93
2021/08/14 11:02:07;;;;;;;7.03;2.23;;;;;;;32.58;37.99;100938.81;4936744;29;20035;-92
2021/08/14 11:04:40;;;;;;;4.25;2.00;;;;;;;33.14;37.19;100927.50;4935245;29;20059;-93
2021/08/14 11:07:18;;;;;;;5.70;2.00;;;;;;;32.95;36.07;100924.91;4935326;29;20024;-94
2021/08/14 11:09:49;;;;;;;5.85;2.47;;;;;;;32.68;36.18;100918.34;4935234;29;20490;-95
2021/08/14 11:12:42;;;;;;;5.32;2.33;;;;;;;33.72;36.62;100928.31;4935324;29;20436;-94
2021/08/14 11:15:21;;;;;;;5.63;2.42;;;;;;;34.45;35.25;100914.78;4936040;29;20122;-93
2021/08/14 11:17:57;;;;;;;5.47;2.30;;;;;;;34.59;34.15;100921.50;4935946;29;20111;-94
2021/08/14 11:20:22;;;;;;;5.72;2.60;;;;;;;34.93;32.36;100930.47;4936519;29;20027;-94